Time;durP1;ratioP1;P1;durP2;ratioP2;P2;SDS_P1;SDS_P2;PMS_P1;PMS_P2;Temp;Humidity;BMP_temperature;BMP_pressure;BME280_temperature;BME280_humidity;BME280_pressure;Samples;Min_cycle;Max_cycle;Signal;HPM_P1;HPM_P2
2023/07/20 03:03:18;;;;;;;1.83;1.20;;;27.00;45.80;;;;;;4859364;29;45335;-83
2023/07/20 03:05:44;;;;;;;2.40;1.37;;;27.00;45.90;;;;;;4842606;29;45817;-81
2023/07/20 03:08:17;;;;;;;1.40;1.30;;;27.00;45.90;;;;;;4855326;29;47196;-83
2023/07/20 03:10:43;;;;;;;1.75;1.30;;;27.00;45.90;;;;;;4846178;29;45108;-83
2023/07/20 03:13:08;;;;;;;2.50;1.40;;;27.00;45.90;;;;;;4857760;29;45015;-81
2023/07/20 03:15:34;;;;;;;1.23;1.10;;;27.10;46.00;;;;;;4857927;29;45647;-83
2023/07/20 03:17:59;;;;;;;1.45;1.30;;;27.00;45.90;;;;;;4848024;29;45916;-84
2023/07/20 03:20:25;;;;;;;2.13;1.37;;;27.00;45.90;;;;;;4834691;29;45532;-82
2023/07/20 03:22:51;;;;;;;1.65;1.30;;;27.00;45.90;;;;;;4864795;29;44973;-83
2023/07/20 03:25:17;;;;;;;1.17;0.95;;;27.00;45.90;;;;;;4867165;29;45291;-86
2023/07/20 03:27:43;;;;;;;1.67;1.27;;;27.00;45.90;;;;;;4852795;29;47212;-82
2023/07/20 03:30:09;;;;;;;1.60;1.23;;;27.00;45.90;;;;;;4844740;29;45379;-81
2023/07/20 03:32:35;;;;;;;2.10;1.35;;;27.00;45.90;;;;;;4847668;29;45967;-84
2023/07/20 03:35:01;;;;;;;1.95;1.50;;;27.00;45.90;;;;;;4807681;29;45624;-84
2023/07/20 03:37:26;;;;;;;1.50;1.30;;;27.00;46.50;;;;;;4881154;28;46432;-84
2023/07/20 03:39:52;;;;;;;1.97;1.60;;;27.00;45.80;;;;;;4886347;28;45514;-83
2023/07/20 03:42:18;;;;;;;1.88;1.52;;;27.00;45.90;;;;;;4864469;28;45000;-81
2023/07/20 03:44:44;;;;;;;1.80;1.33;;;27.00;45.90;;;;;;4868685;28;45084;-82
2023/07/20 03:47:09;;;;;;;2.25;1.50;;;27.00;45.90;;;;;;4873957;28;45202;-82
2023/07/20 03:49:35;;;;;;;2.70;1.30;;;27.00;45.90;;;;;;4874403;28;45836;-86
2023/07/20 03:52:03;;;;;;;1.70;1.30;;;27.00;45.90;;;;;;4849380;28;46178;-84
2023/07/20 03:54:29;;;;;;;1.70;1.30;;;27.00;45.90;;;;;;4865820;29;45660;-82
2023/07/20 03:56:54;;;;;;;1.48;1.20;;;27.00;45.90;;;;;;4843175;28;45695;-84
2023/07/20 03:59:20;;;;;;;2.20;1.17;;;27.00;45.90;;;;;;4874256;29;45412;-82
2023/07/20 04:01:45;;;;;;;1.75;1.10;;;27.00;45.90;;;;;;4869077;29;45339;-82
2023/07/20 04:04:11;;;;;;;2.03;1.30;;;27.00;45.90;;;;;;4877915;29;45538;-84
2023/07/20 04:06:37;;;;;;;1.58;1.23;;;27.00;45.90;;;;;;4864525;29;47388;-83
2023/07/20 04:09:03;;;;;;;2.20;1.30;;;27.00;45.90;;;;;;4863598;29;45429;-84
2023/07/20 04:11:28;;;;;;;1.92;1.33;;;27.00;45.90;;;;;;4877106;29;45473;-82
2023/07/20 04:13:56;;;;;;;1.40;1.17;;;27.00;45.90;;;;;;4860088;29;45286;-84
2023/07/20 04:16:21;;;;;;;2.00;1.20;;;27.00;45.90;;;;;;4855667;29;45530;-82
2023/07/20 04:18:47;;;;;;;1.97;1.20;;;27.00;45.90;;;;;;4874748;29;45651;-83
2023/07/20 04:21:12;;;;;;;1.60;1.30;;;26.90;45.80;;;;;;4859174;29;45343;-82
2023/07/20 04:23:38;;;;;;;2.10;1.23;;;27.00;45.90;;;;;;4879666;29;45097;-85
2023/07/20 04:26:04;;;;;;;1.63;1.38;;;27.00;45.90;;;;;;4879116;29;45644;-84
2023/07/20 04:28:30;;;;;;;1.48;1.17;;;27.00;45.90;;;;;;4862292;29;44713;-83
2023/07/20 04:30:58;;;;;;;1.75;1.42;;;27.00;45.90;;;;;;4873806;29;45751;-83
2023/07/20 04:33:24;;;;;;;1.65;1.10;;;27.00;45.90;;;;;;4853038;29;45526;-83
2023/07/20 04:35:49;;;;;;;1.55;1.10;;;27.00;45.90;;;;;;4846219;29;47272;-82
2023/07/20 04:38:17;;;;;;;2.03;1.25;;;27.00;46.00;;;;;;4878527;29;45181;-85
2023/07/20 04:40:44;;;;;;;2.30;1.40;;;27.00;45.90;;;;;;4876063;29;44774;-82
2023/07/20 04:43:09;;;;;;;1.50;1.10;;;27.00;46.00;;;;;;4875038;29;45290;-82
2023/07/20 04:45:35;;;;;;;2.00;1.30;;;27.00;45.90;;;;;;4877458;28;45341;-84
2023/07/20 04:48:00;;;;;;;2.20;1.30;;;27.00;45.90;;;;;;4875342;29;45414;-84
2023/07/20 04:50:26;;;;;;;1.37;1.20;;;27.00;46.00;;;;;;4857954;29;45274;-83
2023/07/20 04:52:53;;;;;;;1.80;1.30;;;27.00;46.00;;;;;;4893413;28;45516;-82
2023/07/20 04:55:18;;;;;;;1.50;1.20;;;27.00;46.00;;;;;;4867175;29;46920;-83
2023/07/20 04:57:44;;;;;;;1.20;1.10;;;27.00;46.00;;;;;;4892532;28;45390;-84
2023/07/20 05:00:14;;;;;;;1.97;1.40;;;27.00;46.00;;;;;;4872365;29;45440;-84
2023/07/20 05:02:39;;;;;;;1.42;1.23;;;27.00;46.00;;;;;;4883284;28;45843;-83
2023/07/20 05:05:05;;;;;;;1.80;1.13;;;26.90;45.90;;;;;;4881932;28;46062;-86
2023/07/20 05:07:32;;;;;;;1.40;1.30;;;26.90;45.90;;;;;;4865016;28;45126;-82
2023/07/20 05:09:57;;;;;;;1.67;1.25;;;26.90;45.90;;;;;;4866352;28;45637;-84
2023/07/20 05:12:23;;;;;;;2.33;1.20;;;27.00;46.00;;;;;;4862991;29;46105;-83
2023/07/20 05:14:48;;;;;;;1.77;1.30;;;27.00;46.00;;;;;;4869809;28;46319;-82
2023/07/20 05:17:14;;;;;;;1.58;1.20;;;27.00;46.00;;;;;;4873363;29;45836;-83
2023/07/20 05:19:39;;;;;;;1.80;1.40;;;27.00;46.00;;;;;;4881902;28;44991;-83
2023/07/20 05:22:05;;;;;;;1.47;1.37;;;27.00;46.00;;;;;;4868430;28;45468;-82
2023/07/20 05:24:31;;;;;;;1.47;1.20;;;26.90;45.90;;;;;;4880166;28;45525;-83
2023/07/20 05:26:58;;;;;;;1.93;1.20;;;27.00;46.60;;;;;;4875993;28;45445;-82
2023/07/20 05:29:23;;;;;;;2.20;1.20;;;27.00;46.00;;;;;;4867196;28;45357;-82
2023/07/20 05:31:49;;;;;;;1.70;1.17;;;26.90;45.90;;;;;;4876887;28;45301;-84
2023/07/20 05:34:15;;;;;;;3.00;1.40;;;26.90;46.00;;;;;;4874537;29;46654;-83
2023/07/20 05:36:40;;;;;;;1.87;1.30;;;27.00;46.00;;;;;;4855081;28;45444;-84
2023/07/20 05:39:06;;;;;;;2.10;1.20;;;26.90;45.90;;;;;;4871400;28;44828;-82
2023/07/20 05:41:31;;;;;;;2.00;1.30;;;26.90;46.00;;;;;;4882977;28;45392;-83
2023/07/20 05:43:57;;;;;;;1.57;1.30;;;26.90;46.00;;;;;;4885670;28;47524;-87
2023/07/20 05:46:24;;;;;;;1.58;1.15;;;26.90;46.00;;;;;;4853080;28;45195;-83
2023/07/20 05:48:49;;;;;;;2.00;1.30;;;26.90;46.00;;;;;;4873802;28;45270;-82
2023/07/20 05:51:15;;;;;;;1.90;1.20;;;26.90;46.00;;;;;;4845864;28;45581;-86
2023/07/20 05:53:41;;;;;;;1.58;1.13;;;26.90;46.10;;;;;;4871480;29;46476;-81
2023/07/20 05:56:10;;;;;;;2.00;1.30;;;26.90;46.60;;;;;;4883811;28;44901;-83
2023/07/20 05:58:36;;;;;;;1.80;1.20;;;26.90;46.00;;;;;;4878541;28;45551;-84
2023/07/20 06:01:02;;;;;;;1.20;1.10;;;26.90;46.00;;;;;;4880867;28;45287;-83
2023/07/20 06:03:28;;;;;;;1.40;1.15;;;26.90;46.00;;;;;;4885323;28;46874;-81
2023/07/20 06:05:59;;;;;;;1.80;1.40;;;26.90;46.00;;;;;;4865722;28;45548;-82
2023/07/20 06:08:24;;;;;;;2.03;1.10;;;26.90;46.00;;;;;;4869662;28;45289;-81
2023/07/20 06:10:53;;;;;;;1.43;1.17;;;26.90;46.00;;;;;;4870060;28;45353;-81
2023/07/20 06:13:18;;;;;;;1.23;1.13;;;26.90;46.00;;;;;;4874462;28;46161;-84
2023/07/20 06:15:44;;;;;;;1.25;1.00;;;26.90;46.00;;;;;;4881596;28;45505;-83
2023/07/20 06:18:09;;;;;;;2.20;1.25;;;26.90;46.00;;;;;;4891397;28;45394;-81
2023/07/20 06:20:35;;;;;;;1.50;1.10;;;26.90;46.00;;;;;;4865382;28;45089;-81
2023/07/20 06:23:00;;;;;;;2.13;1.10;;;26.90;46.00;;;;;;4877882;28;47154;-83
2023/07/20 06:25:26;;;;;;;2.70;1.10;;;26.90;46.00;;;;;;4866484;28;45419;-81
2023/07/20 06:27:51;;;;;;;1.33;1.23;;;26.90;46.00;;;;;;4884823;28;44863;-84
2023/07/20 06:30:17;;;;;;;1.40;1.10;;;26.90;46.00;;;;;;4868966;28;44848;-83
2023/07/20 06:32:43;;;;;;;1.20;1.10;;;26.90;46.00;;;;;;4869248;28;46918;-83
2023/07/20 06:35:09;;;;;;;1.97;1.07;;;26.90;46.00;;;;;;4871479;28;45040;-87
2023/07/20 06:37:35;;;;;;;2.05;1.20;;;26.90;46.00;;;;;;4881484;29;45015;-83
2023/07/20 06:40:02;;;;;;;2.47;1.20;;;26.90;46.00;;;;;;4874954;28;45551;-81
2023/07/20 06:42:27;;;;;;;1.70;1.20;;;26.90;46.00;;;;;;4855229;29;46559;-82
2023/07/20 06:44:53;;;;;;;2.25;1.10;;;26.90;46.00;;;;;;4885478;28;45026;-83
2023/07/20 06:47:19;;;;;;;2.20;1.20;;;26.90;46.00;;;;;;4859311;29;45260;-82
2023/07/20 06:49:44;;;;;;;1.20;1.02;;;26.90;46.00;;;;;;4887570;28;45019;-85
2023/07/20 06:52:10;;;;;;;1.10;1.00;;;26.90;46.00;;;;;;4871753;28;45402;-82
2023/07/20 06:54:35;;;;;;;1.23;1.10;;;26.90;46.00;;;;;;4882502;29;45543;-82
2023/07/20 06:57:01;;;;;;;1.80;1.00;;;26.80;46.00;;;;;;4863406;28;45421;-82
2023/07/20 06:59:26;;;;;;;1.20;1.10;;;26.90;46.00;;;;;;4870728;28;45628;-84
2023/07/20 07:01:52;;;;;;;1.70;1.10;;;26.80;46.00;;;;;;4871512;28;46208;-83
2023/07/20 07:04:17;;;;;;;1.58;1.30;;;26.90;46.00;;;;;;4883021;28;45302;-83
2023/07/20 07:06:44;;;;;;;1.10;1.00;;;26.90;46.00;;;;;;4869071;28;45543;-82
2023/07/20 07:09:09;;;;;;;1.77;1.10;;;26.80;45.90;;;;;;4873114;28;45536;-82
2023/07/20 07:11:35;;;;;;;1.50;1.20;;;26.90;46.00;;;;;;4871220;28;45486;-83
2023/07/20 07:14:00;;;;;;;1.77;1.17;;;26.90;46.00;;;;;;4888217;28;45670;-81
2023/07/20 07:16:26;;;;;;;2.13;1.20;;;26.80;45.90;;;;;;4872959;28;45510;-82
2023/07/20 07:18:52;;;;;;;1.10;1.00;;;26.80;45.90;;;;;;4880647;28;45535;-82
2023/07/20 07:21:17;;;;;;;2.47;1.10;;;26.90;45.90;;;;;;4871379;28;47015;-83
2023/07/20 07:23:43;;;;;;;1.40;0.93;;;26.80;45.90;;;;;;4871454;28;45305;-81
2023/07/20 07:26:09;;;;;;;1.75;1.20;;;26.90;46.00;;;;;;4866933;28;45204;-83
2023/07/20 07:28:35;;;;;;;1.52;1.13;;;26.90;45.90;;;;;;4872769;28;45234;-82
2023/07/20 07:31:00;;;;;;;1.00;0.90;;;26.80;45.90;;;;;;4862883;28;46945;-82
2023/07/20 07:33:26;;;;;;;1.80;1.20;;;26.80;45.90;;;;;;4887784;28;45464;-84
2023/07/20 07:35:54;;;;;;;2.05;1.20;;;26.90;45.90;;;;;;4879194;28;45369;-83
2023/07/20 07:38:20;;;;;;;2.33;1.15;;;26.80;45.80;;;;;;4858740;28;45545;-83
2023/07/20 07:40:46;;;;;;;1.43;1.00;;;26.80;45.90;;;;;;4844243;28;46787;-82
2023/07/20 07:43:13;;;;;;;2.10;1.10;;;26.80;46.50;;;;;;4855777;28;44808;-82
2023/07/20 07:45:39;;;;;;;1.25;1.00;;;26.90;45.90;;;;;;4869611;28;45285;-84
2023/07/20 07:48:05;;;;;;;1.42;1.10;;;26.80;45.80;;;;;;4863893;28;45429;-82
2023/07/20 07:50:31;;;;;;;2.00;1.10;;;26.80;45.90;;;;;;4864321;28;47809;-82
2023/07/20 07:52:56;;;;;;;1.60;1.20;;;26.80;45.80;;;;;;4882913;28;45413;-83
2023/07/20 07:55:22;;;;;;;2.58;1.13;;;26.80;45.80;;;;;;4854693;28;44995;-82
2023/07/20 07:57:47;;;;;;;1.50;1.20;;;26.80;45.80;;;;;;4884104;28;45273;-82
2023/07/20 08:00:14;;;;;;;1.93;1.10;;;26.80;45.80;;;;;;4878904;28;46547;-87
2023/07/20 08:02:43;;;;;;;2.20;1.20;;;26.80;45.90;;;;;;4866887;28;45210;-82
2023/07/20 08:05:09;;;;;;;1.67;1.20;;;26.90;45.90;;;;;;4879003;28;45287;-87
2023/07/20 08:07:35;;;;;;;1.77;1.20;;;26.80;45.80;;;;;;4874060;28;45527;-82
2023/07/20 08:10:01;;;;;;;1.27;1.07;;;26.80;45.80;;;;;;4882276;28;47007;-81
2023/07/20 08:12:28;;;;;;;2.28;1.00;;;26.80;45.80;;;;;;4869250;29;63430;-82
2023/07/20 08:14:54;;;;;;;1.27;1.00;;;26.80;45.80;;;;;;4883159;29;44912;-81
2023/07/20 08:17:19;;;;;;;1.90;1.10;;;26.90;45.80;;;;;;4871833;28;45142;-83
2023/07/20 08:19:46;;;;;;;2.05;1.10;;;26.80;45.80;;;;;;4853424;28;48015;-82
2023/07/20 08:22:12;;;;;;;1.75;1.20;;;26.80;45.80;;;;;;4861167;28;45201;-82
2023/07/20 08:24:43;;;;;;;1.48;1.05;;;26.80;45.80;;;;;;4862425;28;45404;-81
2023/07/20 08:27:09;;;;;;;1.25;0.90;;;26.80;45.70;;;;;;4880720;28;45222;-83
2023/07/20 08:29:35;;;;;;;1.40;1.15;;;26.80;45.70;;;;;;4867401;28;45733;-82
2023/07/20 08:32:02;;;;;;;1.00;0.90;;;26.80;45.80;;;;;;4876454;28;44778;-82
2023/07/20 08:34:27;;;;;;;1.23;1.00;;;26.80;45.70;;;;;;4872418;28;45555;-84
2023/07/20 08:36:53;;;;;;;1.05;0.95;;;26.90;45.80;;;;;;4881162;28;45675;-85
2023/07/20 08:39:18;;;;;;;1.83;1.00;;;26.80;45.70;;;;;;4881594;28;48372;-84
2023/07/20 08:41:44;;;;;;;1.57;1.10;;;26.80;45.80;;;;;;4864944;28;45225;-82
2023/07/20 08:44:10;;;;;;;1.67;1.20;;;26.80;45.70;;;;;;4881780;28;45441;-83
2023/07/20 08:46:37;;;;;;;1.60;1.10;;;26.80;45.70;;;;;;4847254;28;45735;-82
2023/07/20 08:49:03;;;;;;;1.05;0.90;;;26.90;45.80;;;;;;4869242;28;45894;-84
2023/07/20 08:51:30;;;;;;;1.33;0.90;;;26.80;45.70;;;;;;4865254;28;45586;-82
2023/07/20 08:53:55;;;;;;;1.97;1.00;;;26.80;45.70;;;;;;4870660;28;45529;-82
2023/07/20 08:56:21;;;;;;;1.57;1.10;;;26.80;45.70;;;;;;4880143;28;45833;-83
2023/07/20 08:58:47;;;;;;;1.50;1.20;;;26.80;45.70;;;;;;4865209;28;45562;-82
2023/07/20 09:01:12;;;;;;;1.23;1.10;;;26.80;45.70;;;;;;4873745;28;45575;-82
2023/07/20 09:03:39;;;;;;;1.37;1.10;;;26.80;45.70;;;;;;4880094;28;45273;-83
2023/07/20 09:06:05;;;;;;;1.42;1.17;;;26.80;45.60;;;;;;4878507;28;45348;-82
2023/07/20 09:08:31;;;;;;;2.40;1.10;;;26.80;45.60;;;;;;4872566;29;45347;-81
2023/07/20 09:10:56;;;;;;;1.00;0.80;;;26.80;45.60;;;;;;4866736;28;44770;-82
2023/07/20 09:13:22;;;;;;;1.13;0.97;;;26.80;45.60;;;;;;4868288;28;45339;-82
2023/07/20 09:15:52;;;;;;;1.60;1.00;;;26.80;45.60;;;;;;4876171;28;45338;-82
2023/07/20 09:18:25;;;;;;;1.65;1.00;;;26.80;45.60;;;;;;4865286;28;47374;-84
2023/07/20 09:20:50;;;;;;;1.40;1.00;;;26.80;46.20;;;;;;4877819;29;45244;-85
2023/07/20 09:23:16;;;;;;;1.38;1.20;;;26.80;45.60;;;;;;4864657;28;45517;-81
2023/07/20 09:25:42;;;;;;;1.65;1.20;;;26.80;45.60;;;;;;4847653;28;45212;-82
2023/07/20 09:28:07;;;;;;;1.13;0.90;;;26.80;45.60;;;;;;4865186;28;46704;-84
2023/07/20 09:30:33;;;;;;;2.03;1.33;;;26.80;45.60;;;;;;4862760;28;45174;-84
2023/07/20 09:32:59;;;;;;;1.47;1.17;;;26.80;45.60;;;;;;4879887;28;46082;-82
2023/07/20 09:35:25;;;;;;;1.30;1.10;;;26.80;45.60;;;;;;4878882;28;45021;-82
2023/07/20 09:37:59;;;;;;;1.77;1.17;;;26.80;45.60;;;;;;4881272;28;45442;-83
2023/07/20 09:40:28;;;;;;;0.97;0.83;;;26.80;45.60;;;;;;4882735;28;45405;-82
2023/07/20 09:43:00;;;;;;;1.48;1.10;;;26.90;45.60;;;;;;4866210;28;45631;-84
2023/07/20 09:45:44;;;;;;;1.60;1.08;;;26.90;45.60;;;;;;4848300;28;45124;-83
2023/07/20 09:48:10;;;;;;;1.60;1.00;;;26.80;45.50;;;;;;4878205;28;46240;-83
2023/07/20 09:50:43;;;;;;;1.10;0.90;;;26.80;45.50;;;;;;4866751;28;45202;-84
2023/07/20 09:53:13;;;;;;;1.07;0.87;;;26.80;45.50;;;;;;4855145;28;45241;-85
2023/07/20 09:55:39;;;;;;;1.13;0.98;;;26.80;45.50;;;;;;4869282;28;45277;-86
2023/07/20 09:58:06;;;;;;;1.20;1.10;;;26.80;45.50;;;;;;4867666;28;46565;-82
2023/07/20 10:00:32;;;;;;;1.42;1.00;;;26.80;45.50;;;;;;4882628;28;45616;-84
2023/07/20 10:02:59;;;;;;;1.85;0.80;;;26.80;45.50;;;;;;4903876;28;45516;-82
2023/07/20 10:05:24;;;;;;;2.20;1.00;;;26.80;45.50;;;;;;4864162;28;45551;-82
2023/07/20 10:07:50;;;;;;;2.00;1.00;;;26.80;45.50;;;;;;4888791;28;46392;-81
2023/07/20 10:10:17;;;;;;;1.23;0.98;;;26.80;45.50;;;;;;4872344;28;45491;-82
2023/07/20 10:12:42;;;;;;;3.00;1.10;;;26.80;45.50;;;;;;4870052;29;46608;-81
2023/07/20 10:15:13;;;;;;;2.03;0.90;;;26.90;45.80;;;;;;4872497;28;45455;-85
2023/07/20 10:17:49;;;;;;;1.33;0.85;;;26.80;45.50;;;;;;4875254;28;46892;-83
2023/07/20 10:20:16;;;;;;;4.15;1.02;;;26.80;45.50;;;;;;4885118;28;44807;-82
2023/07/20 10:22:41;;;;;;;2.05;0.90;;;26.80;45.50;;;;;;4873817;28;45484;-83
2023/07/20 10:25:08;;;;;;;2.80;1.00;;;26.80;46.10;;;;;;4860278;28;45651;-85
2023/07/20 10:27:34;;;;;;;2.40;1.10;;;26.90;45.50;;;;;;4846784;28;45890;-83
2023/07/20 10:30:01;;;;;;;2.00;1.10;;;26.80;45.40;;;;;;4888127;28;44990;-83
2023/07/20 10:32:26;;;;;;;1.30;1.08;;;26.80;45.40;;;;;;4883412;28;45247;-85
2023/07/20 10:34:55;;;;;;;1.75;1.10;;;26.80;45.40;;;;;;4886516;28;45771;-83
2023/07/20 10:37:45;;;;;;;3.72;1.10;;;26.90;45.50;;;;;;4860795;28;46042;-81
2023/07/20 10:40:27;;;;;;;1.58;0.80;;;26.80;45.40;;;;;;4892339;28;44934;-84
2023/07/20 10:42:58;;;;;;;1.45;0.82;;;26.80;45.40;;;;;;4883499;29;45159;-81
2023/07/20 10:45:42;;;;;;;1.85;0.90;;;26.90;45.50;;;;;;4882180;28;45713;-84
2023/07/20 10:48:21;;;;;;;4.07;1.15;;;26.80;45.40;;;;;;4887472;28;47255;-87
2023/07/20 10:51:14;;;;;;;2.00;0.90;;;26.80;45.40;;;;;;4867816;28;45441;-83
2023/07/20 10:53:39;;;;;;;0.98;0.82;;;26.90;45.40;;;;;;4897256;28;45383;-84
2023/07/20 10:56:11;;;;;;;2.00;0.95;;;26.90;45.40;;;;;;4865629;28;45316;-89
2023/07/20 10:58:37;;;;;;;2.08;1.10;;;26.80;45.40;;;;;;4869696;28;46077;-84
2023/07/20 11:01:03;;;;;;;1.75;0.90;;;26.80;45.30;;;;;;4876653;29;45052;-83
2023/07/20 11:03:33;;;;;;;1.67;0.95;;;26.90;45.50;;;;;;4853935;29;45331;-85
2023/07/20 11:05:59;;;;;;;1.25;0.88;;;26.90;45.40;;;;;;4879452;29;45607;-85
2023/07/20 11:08:43;;;;;;;1.13;0.88;;;26.90;45.40;;;;;;4864451;29;46300;-81
2023/07/20 11:11:29;;;;;;;2.77;0.97;;;26.90;45.30;;;;;;4861920;29;45135;-84
2023/07/20 11:13:59;;;;;;;1.05;0.80;;;26.90;45.30;;;;;;4866721;29;45018;-83
2023/07/20 11:16:43;;;;;;;1.13;0.77;;;26.80;45.20;;;;;;4848556;29;45447;-83
2023/07/20 11:19:23;;;;;;;1.27;0.80;;;26.80;45.20;;;;;;4897889;28;45221;-82
2023/07/20 11:21:53;;;;;;;2.13;0.80;;;26.90;45.30;;;;;;4861069;29;45448;-82
2023/07/20 11:24:19;;;;;;;1.43;0.80;;;26.80;45.20;;;;;;4865682;29;45329;-81
2023/07/20 11:26:46;;;;;;;2.78;1.00;;;26.80;45.20;;;;;;4867345;29;45134;-83
2023/07/20 11:29:12;;;;;;;1.30;0.80;;;26.90;45.20;;;;;;4883642;29;46495;-84
2023/07/20 11:31:39;;;;;;;1.00;0.90;;;26.80;45.10;;;;;;4867445;29;45127;-84
2023/07/20 11:34:05;;;;;;;2.40;1.00;;;26.90;45.20;;;;;;4887587;29;44709;-85
2023/07/20 11:36:30;;;;;;;1.20;0.80;;;26.80;45.10;;;;;;4878157;29;45306;-85
2023/07/20 11:38:56;;;;;;;1.00;0.80;;;26.90;45.10;;;;;;4851687;29;46911;-82
2023/07/20 11:41:22;;;;;;;1.80;0.90;;;26.90;45.10;;;;;;4868666;29;45231;-83
2023/07/20 11:43:47;;;;;;;1.00;0.70;;;26.90;45.10;;;;;;4882498;29;45253;-82
2023/07/20 11:46:13;;;;;;;1.50;0.80;;;26.90;45.10;;;;;;4883172;29;45022;-82
2023/07/20 11:48:39;;;;;;;1.00;0.87;;;26.90;45.10;;;;;;4869601;29;47247;-86
2023/07/20 11:51:05;;;;;;;0.93;0.63;;;26.90;45.10;;;;;;4876055;29;45174;-83
2023/07/20 11:53:32;;;;;;;1.03;0.80;;;26.90;45.10;;;;;;4878073;29;45330;-83
2023/07/20 11:55:58;;;;;;;1.10;0.90;;;26.90;45.10;;;;;;4849514;29;45478;-83
2023/07/20 11:58:24;;;;;;;1.00;0.90;;;26.90;45.10;;;;;;4865948;29;47366;-84
2023/07/20 12:00:49;;;;;;;1.15;0.70;;;26.80;45.00;;;;;;4871854;28;45246;-83
2023/07/20 12:03:15;;;;;;;1.92;0.95;;;26.90;45.00;;;;;;4869296;29;45570;-83
2023/07/20 12:05:40;;;;;;;0.95;0.80;;;26.90;45.00;;;;;;4852448;29;45331;-81
2023/07/20 12:08:06;;;;;;;0.90;0.70;;;26.90;45.00;;;;;;4862461;29;45743;-81
2023/07/20 12:10:32;;;;;;;1.03;0.70;;;26.90;45.00;;;;;;4860633;29;44995;-82
2023/07/20 12:13:03;;;;;;;0.77;0.70;;;26.90;45.00;;;;;;4863969;29;45546;-83
2023/07/20 12:15:30;;;;;;;1.77;0.80;;;26.90;45.00;;;;;;4881184;29;45582;-83
2023/07/20 12:18:00;;;;;;;1.05;0.80;;;26.90;45.00;;;;;;4849600;29;47144;-82
2023/07/20 12:20:32;;;;;;;1.10;0.80;;;26.90;45.00;;;;;;4879888;29;45608;-82
2023/07/20 12:23:02;;;;;;;1.27;0.70;;;26.90;45.00;;;;;;4885309;29;45268;-84
2023/07/20 12:25:37;;;;;;;1.40;0.70;;;26.90;45.00;;;;;;4879413;29;45573;-84
2023/07/20 12:28:13;;;;;;;1.23;0.70;;;26.90;45.00;;;;;;4881023;28;45239;-84
2023/07/20 12:30:40;;;;;;;0.90;0.68;;;26.90;45.00;;;;;;4849829;29;45691;-89
2023/07/20 12:33:05;;;;;;;0.85;0.68;;;26.90;45.00;;;;;;4864282;29;45431;-83
2023/07/20 12:35:31;;;;;;;1.05;0.57;;;26.90;45.00;;;;;;4849237;29;44952;-82
2023/07/20 12:37:57;;;;;;;0.93;0.70;;;26.90;45.00;;;;;;4859894;29;45871;-82
2023/07/20 12:40:22;;;;;;;1.20;0.80;;;26.90;44.90;;;;;;4876918;29;45397;-83
2023/07/20 12:42:48;;;;;;;0.95;0.70;;;26.90;45.00;;;;;;4874372;29;45035;-84
2023/07/20 12:45:14;;;;;;;0.73;0.73;;;26.90;44.90;;;;;;4863047;29;45616;-86
2023/07/20 12:47:40;;;;;;;1.40;0.65;;;26.90;44.90;;;;;;4861726;29;47030;-82
2023/07/20 12:50:06;;;;;;;1.17;0.80;;;26.90;44.90;;;;;;4873956;29;45309;-89
2023/07/20 12:52:35;;;;;;;0.88;0.60;;;26.90;44.90;;;;;;4878652;29;45520;-83
2023/07/20 12:55:04;;;;;;;0.70;0.70;;;26.90;44.90;;;;;;4880255;29;45684;-84
2023/07/20 12:57:29;;;;;;;1.00;0.80;;;26.90;44.90;;;;;;4872282;29;45375;-86
2023/07/20 12:59:55;;;;;;;1.10;0.70;;;26.90;44.90;;;;;;4860264;29;45373;-83
2023/07/20 13:02:21;;;;;;;0.80;0.80;;;26.90;44.90;;;;;;4862053;29;44965;-83
2023/07/20 13:04:46;;;;;;;0.60;0.60;;;26.90;44.90;;;;;;4881105;29;45426;-84
2023/07/20 13:07:12;;;;;;;0.70;0.50;;;27.00;44.90;;;;;;4878072;29;45334;-83
2023/07/20 13:09:37;;;;;;;0.63;0.60;;;26.90;44.80;;;;;;4877937;29;45077;-82
2023/07/20 13:12:03;;;;;;;0.90;0.60;;;26.90;44.80;;;;;;4862747;29;45048;-83
2023/07/20 13:14:29;;;;;;;0.90;0.63;;;26.90;44.80;;;;;;4864044;29;45293;-85
2023/07/20 13:16:56;;;;;;;0.60;0.60;;;26.90;44.80;;;;;;4841589;29;46904;-84
2023/07/20 13:19:21;;;;;;;0.60;0.57;;;26.90;44.80;;;;;;4844493;29;44974;-86
2023/07/20 13:21:47;;;;;;;1.03;0.80;;;27.00;44.90;;;;;;4844707;29;45808;-81
2023/07/20 13:24:12;;;;;;;0.80;0.80;;;26.90;44.80;;;;;;4879463;29;45493;-83
2023/07/20 13:26:38;;;;;;;0.90;0.70;;;26.90;44.80;;;;;;4859746;29;47450;-83
2023/07/20 13:29:03;;;;;;;1.45;0.77;;;26.90;44.80;;;;;;4878103;29;45385;-84
2023/07/20 13:31:29;;;;;;;1.20;0.80;;;26.90;44.80;;;;;;4889365;28;45501;-83
2023/07/20 13:33:56;;;;;;;1.15;0.90;;;26.90;44.80;;;;;;4868800;29;45723;-83
2023/07/20 13:36:23;;;;;;;1.20;0.87;;;26.90;44.80;;;;;;4880393;29;48408;-82
2023/07/20 13:38:48;;;;;;;0.93;0.70;;;26.90;44.70;;;;;;4863719;29;45322;-83
2023/07/20 13:41:15;;;;;;;0.60;0.60;;;26.90;44.70;;;;;;4852145;29;45107;-84
2023/07/20 13:43:40;;;;;;;0.60;0.60;;;26.90;44.70;;;;;;4867187;29;45625;-84
2023/07/20 13:46:06;;;;;;;0.87;0.67;;;27.00;44.80;;;;;;4878949;29;46937;-82
2023/07/20 13:48:32;;;;;;;0.73;0.70;;;27.00;44.80;;;;;;4849594;29;45888;-83
2023/07/20 13:50:57;;;;;;;0.90;0.60;;;26.90;44.70;;;;;;4862186;29;45554;-82
2023/07/20 13:53:23;;;;;;;0.93;0.70;;;27.00;44.80;;;;;;4880339;29;45470;-83
2023/07/20 13:55:49;;;;;;;0.90;0.60;;;27.00;44.70;;;;;;4847577;29;47430;-82
2023/07/20 13:58:14;;;;;;;0.73;0.70;;;27.00;44.70;;;;;;4878514;29;45357;-84
2023/07/20 14:00:40;;;;;;;0.90;0.63;;;26.90;44.70;;;;;;4857452;29;45715;-89
2023/07/20 14:03:05;;;;;;;0.77;0.52;;;26.90;44.70;;;;;;4866407;29;45401;-84
2023/07/20 14:05:31;;;;;;;1.52;0.63;;;27.00;44.70;;;;;;4883830;29;47054;-82
2023/07/20 14:07:57;;;;;;;1.40;0.80;;;26.90;44.70;;;;;;4871250;29;45304;-84
2023/07/20 14:10:22;;;;;;;0.60;0.60;;;27.00;44.70;;;;;;4870982;29;45297;-82
2023/07/20 14:12:48;;;;;;;0.68;0.68;;;27.00;44.70;;;;;;4878259;29;44843;-81
2023/07/20 14:15:13;;;;;;;0.70;0.60;;;26.90;44.60;;;;;;4887114;29;47331;-89
2023/07/20 14:17:39;;;;;;;1.00;0.70;;;26.90;44.60;;;;;;4886145;29;45063;-87
2023/07/20 14:20:08;;;;;;;0.70;0.70;;;27.00;44.70;;;;;;4868644;29;45937;-87
2023/07/20 14:22:34;;;;;;;0.90;0.75;;;26.90;44.60;;;;;;4868941;29;44701;-83
2023/07/20 14:24:59;;;;;;;0.53;0.53;;;27.00;44.70;;;;;;4888109;29;45754;-82
2023/07/20 14:27:25;;;;;;;1.07;0.60;;;27.00;44.70;;;;;;4880551;29;45060;-81
2023/07/20 14:29:50;;;;;;;0.80;0.80;;;26.90;44.60;;;;;;4856586;28;45289;-86
2023/07/20 14:32:16;;;;;;;0.70;0.60;;;26.90;44.60;;;;;;4881125;28;46188;-85
2023/07/20 14:34:41;;;;;;;0.82;0.70;;;27.00;44.60;;;;;;4864689;29;47165;-82
2023/07/20 14:37:07;;;;;;;0.70;0.70;;;27.00;44.60;;;;;;4869916;29;45740;-82
2023/07/20 14:39:33;;;;;;;1.17;0.70;;;27.00;44.60;;;;;;4887375;29;45518;-82
2023/07/20 14:41:58;;;;;;;0.70;0.70;;;26.90;44.50;;;;;;4869413;29;46031;-82
2023/07/20 14:44:24;;;;;;;0.93;0.80;;;27.00;44.60;;;;;;4854132;29;47293;-84
2023/07/20 14:46:50;;;;;;;1.00;0.70;;;27.00;44.60;;;;;;4866761;29;45091;-82
2023/07/20 14:49:16;;;;;;;1.07;0.70;;;27.00;44.60;;;;;;4869020;29;45177;-82
2023/07/20 14:51:46;;;;;;;0.75;0.63;;;26.90;44.50;;;;;;4882252;29;45410;-84
2023/07/20 14:54:12;;;;;;;0.73;0.53;;;26.90;44.50;;;;;;4869088;29;47273;-83
2023/07/20 14:56:38;;;;;;;0.75;0.70;;;27.00;44.60;;;;;;4881131;29;45254;-81
2023/07/20 14:59:04;;;;;;;0.80;0.70;;;27.00;44.60;;;;;;4886993;29;44683;-81
2023/07/20 15:01:30;;;;;;;0.85;0.70;;;27.00;44.60;;;;;;4878280;29;45266;-82
2023/07/20 15:03:56;;;;;;;0.80;0.60;;;26.90;44.50;;;;;;4860435;29;47096;-82
2023/07/20 15:06:22;;;;;;;0.80;0.70;;;27.00;44.50;;;;;;4863886;29;46053;-82
2023/07/20 15:08:47;;;;;;;2.03;0.70;;;27.00;44.60;;;;;;4882843;29;45758;-83
2023/07/20 15:11:13;;;;;;;0.57;0.57;;;27.00;44.60;;;;;;4883774;29;45287;-83
2023/07/20 15:13:41;;;;;;;0.70;0.60;;;26.90;44.50;;;;;;4881532;29;45404;-83
2023/07/20 15:16:07;;;;;;;0.60;0.60;;;26.90;44.50;;;;;;4866200;29;44894;-84
2023/07/20 15:18:32;;;;;;;1.07;0.67;;;26.90;44.50;;;;;;4883612;29;45640;-81
2023/07/20 15:20:58;;;;;;;0.90;0.77;;;26.90;44.50;;;;;;4870764;29;45210;-81
2023/07/20 15:23:23;;;;;;;0.80;0.60;;;27.00;44.60;;;;;;4874765;29;46116;-82
2023/07/20 15:25:50;;;;;;;0.87;0.67;;;26.90;44.50;;;;;;4881347;29;45537;-84
2023/07/20 15:28:15;;;;;;;0.50;0.50;;;27.00;44.50;;;;;;4885470;29;45391;-82
2023/07/20 15:30:41;;;;;;;0.60;0.60;;;27.00;44.60;;;;;;4877636;28;45852;-82
2023/07/20 15:33:07;;;;;;;1.10;0.87;;;26.90;44.50;;;;;;4883878;29;45740;-81
2023/07/20 15:35:32;;;;;;;0.93;0.70;;;26.90;44.50;;;;;;4882443;29;45247;-82
2023/07/20 15:37:59;;;;;;;0.80;0.80;;;27.00;44.50;;;;;;4878713;29;44923;-83
2023/07/20 15:40:24;;;;;;;0.70;0.60;;;26.90;44.50;;;;;;4880086;29;45295;-83
2023/07/20 15:42:50;;;;;;;1.07;0.70;;;27.00;44.50;;;;;;4886042;29;47069;-84
2023/07/20 15:45:16;;;;;;;0.60;0.60;;;26.90;44.40;;;;;;4880480;29;45603;-82
2023/07/20 15:47:41;;;;;;;0.65;0.65;;;27.00;45.10;;;;;;4878739;29;46027;-83